Архив погоды в Нижнем Чире

Метеограмма Нижний Чир
Четверг, 26 Апреля
Время местн. Темп Ветер Видим Явления Облачность нижн/средн/верх Атм. давл. Влжн Точка росы ВНГО R Сост. почвы Tg s
Напр Скр Прв ур.ст ур.м изм
12:00 +20.3° Ю-З 6 - 20 км - ясно 754 760 -0.4 52% +10.1° более 2.5 км - - - -
09:00 +16.7° Ю-З 7 - 20 км - облачно с прояснениями 755 761 +0.7 64% +9.9° более 2.5 км - - - -
06:00 +11.3° Ю-З 6 10 10 км - облачно с прояснениями 754 760 +0.1 82% +8.3° более 2.5 км 0 Влажная (без луж) +10° -
03:00 +12.4° Ю,Ю-З 6 - 20 км - облачно 754 760 -0.5 84% +9.7° 1 км - - - -
00:00 +12° Ю 4 - 20 км - преимущественно облачно 755 761 -0.2 82% +9° 1 км - - - -
Среда, 25 Апреля
Время местн. Темп Ветер Видим Явления Облачность нижн/средн/верх Атм. давл. Влжн Точка росы ВНГО R Сост. почвы Tg s
Напр Скр Прв ур.ст ур.м изм
21:00 +13.4° Ю,Ю-З 4 - 20 км - переменная облачность 755 761 +0.2 78% +9.7° более 2.5 км - - - -
18:00 +13.5° З 2 - 20 км - облачно с прояснениями 755 761 -0.2 72% +8.5° 1 км 0.4 - - -
15:00 +14.1° Ю,Ю-В 3 - 20 км - облачно 755 761 -0.3 63% +7.2° 1 км - - - -
12:00 +13° З 4 - 10 км - облачно 755 761 -0.4 78% +9.3° 1 км - - - -
09:00 +10.4° В 3 - 4 км дождь {ливневые осадки} облачно 755 762 +0.2 87% +8.4° 600 м - - - -
06:00 +8.3° Ю 2 - 10 км слабый ливневый дождь облачно 755 761 -0.2 75% +4.2° 600 м - Сырая (есть малые или большие лужи) - -
03:00 +8° Ю 3 - 10 км слабый ливневый дождь облачно 755 762 -0.8 42% -4.1° 600 м - - - -
00:00 +8° Ю 5 - 10 км слабый ливневый дождь облачно 756 762 -0.3 42% -4° 600 м - - - -
Вторник, 24 Апреля
Время местн. Темп Ветер Видим Явления Облачность нижн/средн/верх Атм. давл. Влжн Точка росы ВНГО R Сост. почвы Tg s
Напр Скр Прв ур.ст ур.м изм
21:00 +8.9° Ю,Ю-З 4 - 20 км - преимущественно облачно 757 763 -0.4 40% -4.1° более 2.5 км - - - -
18:00 +13.4° З 4 - 20 км - облачно с прояснениями 757 763 -0.5 15% -12.7° более 2.5 км - - - -
15:00 +11.6° Ю,Ю-З 4 - 20 км - ясно 757 764 -0.9 26% -7.1° более 2.5 км - - - -
12:00 +10.9° С,С-З 2 - 20 км - ясно 758 765 -0.2 19% -11.7° более 2.5 км - - - -
09:00 +8.2° З,С-З 2 - 20 км - ясно 759 765 +0.9 19% -13.7° более 2.5 км - - - -
06:00 +1.2° З,С-З 4 - 20 км - ясно 758 764 +0.8 41% -10.5° более 2.5 км - Замерзшая - -
03:00 +1.3° З 3 - 20 км - ясно 757 763 +0.6 40% -10.9° более 2.5 км - - - -
00:00 +2.4° З,С-З 2 - 20 км - ясно 756 763 +0.7 41% -9.5° более 2.5 км - - - -
Понедельник, 23 Апреля
Время местн. Темп Ветер Видим Явления Облачность нижн/средн/верх Атм. давл. Влжн Точка росы ВНГО R Сост. почвы Tg s
Напр Скр Прв ур.ст ур.м изм
21:00 +5° С 2 - 20 км - переменная облачность 756 762 +2.3 39% -7.8° 1 км - - - -
18:00 +8.2° С 4 - 20 км - преимущественно облачно 753 759 +0.8 27% -9.8° 1 км - - - -
15:00 +9.4° С-З 6 - 20 км - преимущественно облачно 752 758 +0.5 42% -2.9° 1 км - - - -
12:00 +8.2° С 4 - 20 км - преимущественно облачно 752 758 +1.1 44% -3.3° 1 км - - - -
09:00 +8° С 5 - 20 км - преимущественно облачно 751 757 +1.3 54% -0.8° 1 км - - - -